Time;durP1;ratioP1;P1;durP2;ratioP2;P2;SDS_P1;SDS_P2;PMS_P1;PMS_P2;Temp;Humidity;BMP_temperature;BMP_pressure;BME280_temperature;BME280_humidity;BME280_pressure;Samples;Min_cycle;Max_cycle;Signal;HPM_P1;HPM_P2
2022/06/26 00:01:37;;;;;;;0.00;0.00;;;17.20;99.90;;;;;;4957271;28;20142;-85
2022/06/26 00:04:04;;;;;;;;;;;17.20;99.90;;;;;;4955844;28;20066;-85
2022/06/26 00:06:29;;;;;;;0.00;0.00;;;17.10;99.90;;;;;;4955650;28;19998;-86
2022/06/26 00:08:55;;;;;;;0.00;0.00;;;17.10;99.90;;;;;;4954214;28;20035;-85
2022/06/26 00:11:21;;;;;;;0.10;0.10;;;17.20;99.90;;;;;;4950026;28;20117;-85
2022/06/26 00:13:47;;;;;;;0.00;0.00;;;17.20;99.90;;;;;;4934934;28;20822;-85
2022/06/26 00:16:13;;;;;;;0.50;0.50;;;17.30;99.90;;;;;;4949941;28;20038;-85
2022/06/26 00:18:40;;;;;;;0.13;0.10;;;17.20;99.90;;;;;;4950681;28;20092;-85
2022/06/26 00:21:07;;;;;;;0.10;0.10;;;17.10;99.90;;;;;;4955903;28;20047;-85
2022/06/26 00:23:34;;;;;;;0.00;0.00;;;17.10;99.90;;;;;;4951175;28;20496;-85
2022/06/26 00:26:00;;;;;;;0.10;0.10;;;17.10;99.90;;;;;;4953403;28;20507;-86
2022/06/26 00:28:26;;;;;;;0.10;0.10;;;17.20;99.90;;;;;;4954886;28;20030;-86
2022/06/26 00:30:51;;;;;;;0.00;0.00;;;17.20;99.90;;;;;;4931837;28;20640;-85
2022/06/26 00:33:17;;;;;;;0.10;0.10;;;17.20;99.90;;;;;;4955294;28;20031;-85
2022/06/26 00:35:43;;;;;;;0.00;0.00;;;17.10;99.90;;;;;;4957152;28;20130;-85
2022/06/26 00:38:08;;;;;;;0.00;0.00;;;17.20;99.90;;;;;;4960800;28;20045;-85
2022/06/26 00:40:34;;;;;;;0.33;0.33;;;17.30;99.90;;;;;;4959403;28;20043;-84
2022/06/26 00:43:00;;;;;;;0.00;0.00;;;17.00;99.90;;;;;;4956364;28;20089;-85
2022/06/26 00:45:25;;;;;;;0.00;0.00;;;17.00;99.90;;;;;;4952352;28;20031;-85
2022/06/26 00:47:51;;;;;;;0.10;0.10;;;16.80;99.90;;;;;;4954214;28;20093;-85
2022/06/26 00:50:17;;;;;;;0.27;0.27;;;16.40;99.90;;;;;;4951154;28;20928;-85
2022/06/26 00:52:44;;;;;;;0.10;0.10;;;16.20;99.90;;;;;;4949913;28;20035;-85
2022/06/26 00:55:10;;;;;;;0.05;0.05;;;16.20;99.90;;;;;;4952682;28;20106;-85
2022/06/26 00:57:36;;;;;;;0.00;0.00;;;16.10;99.90;;;;;;4954116;28;20034;-85
2022/06/26 01:00:05;;;;;;;0.10;0.10;;;16.30;99.90;;;;;;4946866;28;20090;-85
2022/06/26 01:02:31;;;;;;;0.00;0.00;;;16.30;99.90;;;;;;4951316;28;20125;-85
2022/06/26 01:04:56;;;;;;;0.10;0.10;;;16.30;99.90;;;;;;4936742;28;20130;-85
2022/06/26 01:07:22;;;;;;;0.03;0.03;;;16.40;99.90;;;;;;4960471;28;20778;-84
2022/06/26 01:09:48;;;;;;;0.10;0.10;;;16.40;99.90;;;;;;4937312;28;20031;-85
2022/06/26 01:12:14;;;;;;;0.30;0.30;;;16.40;99.90;;;;;;4951979;28;20043;-85
2022/06/26 01:14:41;;;;;;;0.20;0.20;;;16.50;99.90;;;;;;4954617;28;20511;-85
2022/06/26 01:17:07;;;;;;;0.20;0.20;;;16.60;99.90;;;;;;4958733;28;20073;-86
2022/06/26 01:19:33;;;;;;;0.10;0.10;;;16.60;99.90;;;;;;4953778;28;20034;-84
2022/06/26 01:21:58;;;;;;;0.00;0.00;;;16.50;99.90;;;;;;4952635;28;20085;-85
2022/06/26 01:24:24;;;;;;;0.00;0.00;;;16.50;99.90;;;;;;4957484;28;20070;-85
2022/06/26 01:26:50;;;;;;;1.40;0.67;;;16.40;99.90;;;;;;4933543;28;20031;-86
2022/06/26 01:29:16;;;;;;;0.10;0.10;;;16.50;99.90;;;;;;4956202;28;20023;-85
2022/06/26 01:31:41;;;;;;;0.00;0.00;;;16.50;99.90;;;;;;4954863;28;20049;-85
2022/06/26 01:34:08;;;;;;;0.00;0.00;;;16.60;99.90;;;;;;4952770;28;20118;-84
2022/06/26 01:36:35;;;;;;;0.00;0.00;;;16.70;99.90;;;;;;4954472;28;20475;-85
2022/06/26 01:39:01;;;;;;;0.30;0.28;;;16.70;99.90;;;;;;4946512;28;20393;-85
2022/06/26 01:41:27;;;;;;;0.00;0.00;;;16.40;99.90;;;;;;4953367;28;20047;-84
2022/06/26 01:43:53;;;;;;;0.00;0.00;;;16.50;99.90;;;;;;4938637;28;20401;-84
2022/06/26 01:46:20;;;;;;;0.00;0.00;;;16.30;99.90;;;;;;4930157;28;20050;-85
2022/06/26 01:48:46;;;;;;;0.00;0.00;;;16.40;99.90;;;;;;4952893;28;20027;-84
2022/06/26 01:51:12;;;;;;;0.00;0.00;;;16.30;99.90;;;;;;4931345;28;20500;-84
2022/06/26 01:53:38;;;;;;;0.00;0.00;;;16.20;99.90;;;;;;4952832;28;20034;-85
2022/06/26 01:56:04;;;;;;;0.00;0.00;;;16.40;99.90;;;;;;4952049;28;20031;-85
2022/06/26 01:58:30;;;;;;;;;;;16.30;99.90;;;;;;4950673;28;20054;-85
2022/06/26 02:00:56;;;;;;;0.00;0.00;;;16.30;99.90;;;;;;4952574;28;20403;-84
2022/06/26 02:03:23;;;;;;;0.00;0.00;;;16.30;99.90;;;;;;4955165;28;20126;-84
2022/06/26 02:05:50;;;;;;;0.00;0.00;;;16.30;99.90;;;;;;4949512;28;20110;-85
2022/06/26 02:08:16;;;;;;;0.08;0.08;;;16.20;99.90;;;;;;4955714;28;20046;-85
2022/06/26 02:13:42;;;;;;;0.10;0.10;;;16.10;99.90;;;;;;4955780;28;20503;-84
2022/06/26 02:16:18;;;;;;;2.25;0.30;;;16.10;99.90;;;;;;4953407;28;20548;-84
2022/06/26 02:18:54;;;;;;;0.00;0.00;;;16.20;99.90;;;;;;4956678;28;20035;-85
2022/06/26 02:21:24;;;;;;;0.00;0.00;;;16.10;99.90;;;;;;4954578;28;20220;-85
2022/06/26 02:23:51;;;;;;;0.05;0.05;;;16.20;99.90;;;;;;4958062;28;20027;-84
2022/06/26 02:26:18;;;;;;;;;;;16.30;99.90;;;;;;4933756;28;20039;-85
2022/06/26 02:28:45;;;;;;;0.00;0.00;;;16.40;99.90;;;;;;4953626;28;19914;-84
2022/06/26 02:31:11;;;;;;;0.00;0.00;;;16.40;99.90;;;;;;4954389;28;20042;-85
2022/06/26 02:33:38;;;;;;;0.00;0.00;;;16.40;99.90;;;;;;4954505;28;20027;-85
2022/06/26 02:36:04;;;;;;;;;;;16.40;99.90;;;;;;4959191;28;20039;-84
2022/06/26 02:38:30;;;;;;;0.00;0.00;;;16.30;99.90;;;;;;4956765;28;19921;-86
2022/06/26 02:40:56;;;;;;;0.00;0.00;;;16.30;99.90;;;;;;4935590;28;20456;-86
2022/06/26 02:43:23;;;;;;;0.00;0.00;;;16.30;99.90;;;;;;4952304;28;20114;-84
2022/06/26 02:45:50;;;;;;;0.00;0.00;;;16.20;99.90;;;;;;4951761;28;20038;-85
2022/06/26 02:48:16;;;;;;;0.20;0.20;;;16.30;99.90;;;;;;4951795;28;20857;-84
2022/06/26 02:50:42;;;;;;;0.20;0.20;;;16.30;99.90;;;;;;4955587;28;20106;-85
2022/06/26 02:53:08;;;;;;;0.10;0.10;;;16.20;99.90;;;;;;4956886;28;20038;-84
2022/06/26 02:55:34;;;;;;;1.05;0.32;;;16.10;99.90;;;;;;4952026;28;20046;-84
2022/06/26 02:58:00;;;;;;;0.00;0.00;;;16.10;99.90;;;;;;4952305;28;20035;-84
2022/06/26 03:00:25;;;;;;;0.47;0.10;;;16.10;99.90;;;;;;4953881;28;20034;-84
2022/06/26 03:02:51;;;;;;;0.00;0.00;;;16.30;99.90;;;;;;4936149;29;20032;-84
2022/06/26 03:05:17;;;;;;;0.10;0.10;;;16.10;99.90;;;;;;4934992;28;20051;-84
2022/06/26 03:07:43;;;;;;;0.00;0.00;;;16.10;99.90;;;;;;4952097;28;20377;-85
2022/06/26 03:10:10;;;;;;;0.00;0.00;;;16.10;99.90;;;;;;4957692;28;20048;-85
2022/06/26 03:12:46;;;;;;;0.10;0.10;;;16.00;99.90;;;;;;4958160;28;20478;-85
2022/06/26 03:15:12;;;;;;;;;;;16.10;99.90;;;;;;4950420;28;20429;-85
2022/06/26 03:17:39;;;;;;;7.93;1.50;;;16.10;99.90;;;;;;4958520;28;19914;-86
2022/06/26 03:20:10;;;;;;;0.73;0.60;;;16.00;99.90;;;;;;4954078;28;20118;-85
2022/06/26 03:22:36;;;;;;;0.00;0.00;;;16.10;99.90;;;;;;4959078;28;20043;-85
2022/06/26 03:25:03;;;;;;;0.00;0.00;;;16.00;99.90;;;;;;4959026;28;20045;-85
2022/06/26 03:27:29;;;;;;;0.00;0.00;;;16.00;99.90;;;;;;4952937;28;20035;-86
2022/06/26 03:29:54;;;;;;;0.00;0.00;;;16.00;99.90;;;;;;4958524;28;20031;-85
2022/06/26 03:32:20;;;;;;;0.00;0.00;;;15.90;99.90;;;;;;4941107;28;20041;-85
2022/06/26 03:34:45;;;;;;;0.00;0.00;;;16.00;99.90;;;;;;4961677;28;20443;-85
2022/06/26 03:37:11;;;;;;;0.10;0.10;;;15.90;99.90;;;;;;4955126;28;20038;-85
2022/06/26 03:39:37;;;;;;;0.00;0.00;;;15.90;99.90;;;;;;4955245;28;20503;-85
2022/06/26 03:42:03;;;;;;;0.00;0.00;;;16.00;99.90;;;;;;4961001;28;20050;-84
2022/06/26 03:44:30;;;;;;;0.00;0.00;;;15.90;99.90;;;;;;4960011;28;20459;-84
2022/06/26 03:46:56;;;;;;;0.10;0.10;;;15.90;99.90;;;;;;4954860;28;20035;-85
2022/06/26 03:49:23;;;;;;;0.00;0.00;;;15.90;99.90;;;;;;4955650;28;20027;-85
2022/06/26 03:51:49;;;;;;;0.10;0.10;;;16.00;99.90;;;;;;4956339;28;20082;-85
2022/06/26 03:54:15;;;;;;;0.00;0.00;;;15.80;99.90;;;;;;4961502;28;20038;-85
2022/06/26 03:56:40;;;;;;;0.15;0.10;;;15.60;99.90;;;;;;4956792;28;20030;-85
2022/06/26 03:59:06;;;;;;;0.00;0.00;;;15.60;99.90;;;;;;4953031;28;20050;-85
2022/06/26 04:01:32;;;;;;;0.20;0.20;;;15.60;99.90;;;;;;4956556;28;20046;-84
2022/06/26 04:03:58;;;;;;;0.00;0.00;;;15.70;99.90;;;;;;4951746;28;20023;-87
2022/06/26 04:06:24;;;;;;;0.10;0.10;;;15.40;99.90;;;;;;4935401;28;20059;-88
2022/06/26 04:08:49;;;;;;;0.03;0.03;;;15.30;99.90;;;;;;4951931;28;20066;-87
2022/06/26 04:11:16;;;;;;;0.00;0.00;;;15.50;99.90;;;;;;4950549;28;20138;-87
2022/06/26 04:13:42;;;;;;;0.00;0.00;;;15.40;99.90;;;;;;4932154;28;20023;-88
2022/06/26 04:16:08;;;;;;;0.10;0.10;;;15.30;99.90;;;;;;4936237;28;20680;-87
2022/06/26 04:19:13;;;;;;;0.00;0.00;;;15.50;99.90;;;;;;4935279;28;20106;-91
2022/06/26 04:22:36;;;;;;;0.20;0.20;;;15.60;99.90;;;;;;4956744;28;20078;-94
2022/06/26 04:39:39;;;;;;;0.10;0.10;;;15.80;99.90;;;;;;4720586;30;20078;-95
2022/06/26 04:42:07;;;;;;;0.68;0.68;;;15.70;99.90;;;;;;4757366;30;20078;-93
2022/06/26 04:44:43;;;;;;;0.10;0.10;;;15.80;99.90;;;;;;4769604;30;20046;-95
2022/06/26 04:47:37;;;;;;;0.00;0.00;;;16.10;99.90;;;;;;4772891;30;20059;-96
2022/06/26 04:50:15;;;;;;;0.10;0.10;;;16.20;99.90;;;;;;4872611;23;20062;-84
2022/06/26 04:52:49;;;;;;;0.00;0.00;;;16.20;99.90;;;;;;4943109;28;20089;-83
2022/06/26 04:55:15;;;;;;;0.00;0.00;;;16.20;99.90;;;;;;4943396;28;20035;-86
2022/06/26 04:57:42;;;;;;;0.10;0.10;;;16.20;99.90;;;;;;4926807;29;20095;-82
2022/06/26 05:00:13;;;;;;;0.00;0.00;;;16.30;99.90;;;;;;4942628;29;20047;-81
2022/06/26 05:02:39;;;;;;;0.10;0.10;;;16.40;99.90;;;;;;4941268;29;20043;-83
2022/06/26 05:05:05;;;;;;;0.10;0.10;;;16.10;99.90;;;;;;4945294;28;20062;-82
2022/06/26 05:07:32;;;;;;;0.00;0.00;;;16.30;99.90;;;;;;4927680;29;20569;-79
2022/06/26 05:09:57;;;;;;;0.45;0.20;;;16.20;99.90;;;;;;4942565;28;20063;-80
2022/06/26 05:12:23;;;;;;;0.00;0.00;;;16.30;99.90;;;;;;4927357;29;20162;-80
2022/06/26 05:14:49;;;;;;;0.00;0.00;;;16.40;99.90;;;;;;4943667;28;20039;-86
2022/06/26 05:17:14;;;;;;;0.00;0.00;;;16.50;99.90;;;;;;4946359;29;20109;-91
2022/06/26 05:19:40;;;;;;;0.00;0.00;;;16.50;99.90;;;;;;4945071;28;20034;-86
2022/06/26 05:22:06;;;;;;;0.00;0.00;;;16.40;99.90;;;;;;4943343;29;20038;-84
2022/06/26 05:24:32;;;;;;;0.20;0.20;;;16.50;99.90;;;;;;4944902;29;20027;-85
2022/06/26 05:26:58;;;;;;;0.63;0.57;;;16.50;99.90;;;;;;4941873;29;20547;-82
2022/06/26 05:29:25;;;;;;;0.00;0.00;;;16.60;99.90;;;;;;4938895;28;20146;-82
2022/06/26 05:31:51;;;;;;;0.00;0.00;;;16.50;99.90;;;;;;4941669;28;20511;-80
2022/06/26 05:34:16;;;;;;;0.07;0.07;;;16.50;99.90;;;;;;4941810;29;20027;-84
2022/06/26 05:36:42;;;;;;;0.00;0.00;;;16.50;99.90;;;;;;4942480;28;20294;-80
2022/06/26 05:39:08;;;;;;;0.00;0.00;;;16.50;99.90;;;;;;4942688;28;20411;-79
2022/06/26 05:41:34;;;;;;;0.23;0.23;;;16.60;99.90;;;;;;4925968;29;20039;-81
2022/06/26 05:43:59;;;;;;;0.00;0.00;;;16.50;99.90;;;;;;4942463;29;20126;-77
2022/06/26 05:46:26;;;;;;;0.30;0.30;;;16.30;99.90;;;;;;4941501;29;20059;-77
2022/06/26 05:48:51;;;;;;;0.00;0.00;;;16.50;99.90;;;;;;4939532;28;20127;-77
2022/06/26 05:51:17;;;;;;;0.00;0.00;;;16.50;99.90;;;;;;4941848;28;20138;-77
2022/06/26 05:53:43;;;;;;;0.00;0.00;;;16.50;99.90;;;;;;4942252;28;20042;-77
2022/06/26 05:56:09;;;;;;;0.00;0.00;;;16.40;99.90;;;;;;4942271;28;20582;-85
2022/06/26 05:58:34;;;;;;;0.00;0.00;;;16.60;99.90;;;;;;4943723;28;20031;-85
2022/06/26 06:01:00;;;;;;;0.00;0.00;;;16.70;99.90;;;;;;4927480;29;20027;-86
2022/06/26 06:03:25;;;;;;;0.07;0.07;;;16.50;99.90;;;;;;4944304;28;20124;-86
2022/06/26 06:05:51;;;;;;;0.00;0.00;;;16.60;99.90;;;;;;4941621;28;20035;-85
2022/06/26 06:08:17;;;;;;;0.00;0.00;;;16.40;99.90;;;;;;4944164;29;20119;-86
2022/06/26 06:10:43;;;;;;;0.00;0.00;;;16.40;99.90;;;;;;4944731;29;20039;-83
2022/06/26 06:13:08;;;;;;;0.13;0.13;;;16.40;99.90;;;;;;4942075;29;20035;-83
2022/06/26 06:15:34;;;;;;;0.40;0.40;;;16.40;99.90;;;;;;4939804;29;20031;-83
2022/06/26 06:18:00;;;;;;;0.20;0.20;;;16.30;99.90;;;;;;4943738;29;20035;-88
2022/06/26 06:20:25;;;;;;;0.00;0.00;;;16.10;99.90;;;;;;4943009;28;20046;-86
2022/06/26 06:22:54;;;;;;;0.10;0.10;;;16.10;99.90;;;;;;4945919;29;20039;-87
2022/06/26 06:25:22;;;;;;;0.75;0.63;;;16.00;99.90;;;;;;4941664;28;20110;-86
2022/06/26 06:27:48;;;;;;;0.10;0.10;;;15.90;99.90;;;;;;4943070;28;20027;-84
2022/06/26 06:30:15;;;;;;;0.35;0.17;;;15.60;99.90;;;;;;4930761;29;20539;-84
2022/06/26 06:32:41;;;;;;;;;;;15.70;99.90;;;;;;4938764;28;20336;-86
2022/06/26 06:35:13;;;;;;;0.00;0.00;;;15.80;99.90;;;;;;4940572;29;20497;-84
2022/06/26 06:37:39;;;;;;;0.32;0.30;;;15.70;99.90;;;;;;4938985;28;20133;-82
2022/06/26 06:40:05;;;;;;;0.10;0.10;;;15.50;99.90;;;;;;4919899;28;20055;-82
2022/06/26 06:42:31;;;;;;;0.10;0.10;;;15.50;99.90;;;;;;4941361;28;20039;-83
2022/06/26 06:44:57;;;;;;;0.10;0.10;;;15.50;99.90;;;;;;4944143;29;20054;-83
2022/06/26 06:47:22;;;;;;;0.10;0.10;;;15.50;99.90;;;;;;4945149;29;20046;-83
2022/06/26 06:49:48;;;;;;;0.20;0.20;;;15.50;99.90;;;;;;4941320;28;20459;-83
2022/06/26 06:52:14;;;;;;;0.00;0.00;;;15.70;99.90;;;;;;4939305;29;20039;-84
2022/06/26 06:54:39;;;;;;;0.07;0.07;;;15.60;99.90;;;;;;4927756;29;20443;-82
2022/06/26 06:57:05;;;;;;;2.80;0.83;;;15.70;99.90;;;;;;4943858;28;20057;-83
2022/06/26 06:59:31;;;;;;;0.00;0.00;;;15.80;99.90;;;;;;4945832;28;20110;-83
2022/06/26 07:01:57;;;;;;;0.00;0.00;;;15.80;99.90;;;;;;4940697;29;20048;-82
2022/06/26 07:04:23;;;;;;;0.00;0.00;;;15.80;99.90;;;;;;4942746;28;20118;-83
2022/06/26 07:06:49;;;;;;;0.40;0.40;;;15.70;99.90;;;;;;4944457;28;20640;-82
2022/06/26 07:09:14;;;;;;;0.05;0.05;;;15.50;99.90;;;;;;4928230;29;20035;-82
2022/06/26 07:11:40;;;;;;;0.33;0.33;;;15.60;99.90;;;;;;4944612;28;20077;-82
2022/06/26 07:14:06;;;;;;;0.00;0.00;;;15.50;99.90;;;;;;4944798;28;20066;-83
2022/06/26 07:16:32;;;;;;;0.10;0.10;;;15.60;99.90;;;;;;4929554;29;20035;-83
2022/06/26 07:18:58;;;;;;;0.00;0.00;;;15.50;99.90;;;;;;4942364;29;20039;-83
2022/06/26 07:21:24;;;;;;;0.00;0.00;;;15.70;99.90;;;;;;4942955;29;20118;-84
2022/06/26 07:23:50;;;;;;;0.10;0.10;;;15.90;99.90;;;;;;4944763;28;20027;-84
2022/06/26 07:26:15;;;;;;;0.00;0.00;;;15.70;99.90;;;;;;4943058;28;20467;-83
2022/06/26 07:28:41;;;;;;;0.00;0.00;;;15.40;99.90;;;;;;4941956;29;20042;-83
2022/06/26 07:31:07;;;;;;;0.00;0.00;;;15.30;99.90;;;;;;4943568;29;20786;-82
2022/06/26 07:36:17;;;;;;;0.00;0.00;;;15.60;99.90;;;;;;4940401;29;20050;-83
2022/06/26 07:38:43;;;;;;;0.00;0.00;;;15.80;99.90;;;;;;4943614;28;20023;-81
2022/06/26 07:41:09;;;;;;;0.00;0.00;;;16.00;99.90;;;;;;4945185;29;20039;-82
2022/06/26 07:43:34;;;;;;;0.00;0.00;;;16.20;99.90;;;;;;4951686;28;20119;-82
2022/06/26 07:46:00;;;;;;;0.00;0.00;;;16.40;99.90;;;;;;4942723;28;20043;-83
2022/06/26 07:48:26;;;;;;;0.00;0.00;;;16.40;99.90;;;;;;4942198;29;20086;-82
2022/06/26 07:50:52;;;;;;;0.07;0.07;;;16.40;99.90;;;;;;4943855;28;20106;-83
2022/06/26 07:53:19;;;;;;;0.00;0.00;;;16.30;99.90;;;;;;4939857;28;20078;-83
2022/06/26 07:55:44;;;;;;;0.17;0.17;;;16.20;99.90;;;;;;4941282;28;20027;-82
2022/06/26 07:58:10;;;;;;;0.10;0.10;;;16.00;99.90;;;;;;4940592;29;20031;-83
2022/06/26 08:00:36;;;;;;;0.00;0.00;;;16.00;99.90;;;;;;4942225;28;20475;-82
2022/06/26 08:03:10;;;;;;;0.20;0.20;;;16.00;99.90;;;;;;4942979;29;20066;-81
2022/06/26 08:05:37;;;;;;;0.00;0.00;;;15.90;99.90;;;;;;4942637;28;20079;-82
2022/06/26 08:08:04;;;;;;;0.00;0.00;;;15.90;99.90;;;;;;4936190;29;20065;-82
2022/06/26 08:10:30;;;;;;;0.08;0.08;;;16.00;99.90;;;;;;4919753;29;20066;-82
2022/06/26 08:12:56;;;;;;;0.00;0.00;;;16.20;99.90;;;;;;4940935;28;20106;-82
2022/06/26 08:15:23;;;;;;;0.00;0.00;;;16.20;99.90;;;;;;4942608;28;20374;-83
2022/06/26 08:17:48;;;;;;;;;;;16.40;99.90;;;;;;4941500;29;20050;-83
2022/06/26 08:20:14;;;;;;;0.00;0.00;;;16.60;99.90;;;;;;4942802;29;19914;-82
2022/06/26 08:22:40;;;;;;;0.03;0.03;;;16.60;99.90;;;;;;4942296;28;20873;-82
2022/06/26 08:25:07;;;;;;;0.00;0.00;;;16.70;99.90;;;;;;4925829;29;20050;-82
2022/06/26 08:27:32;;;;;;;0.00;0.00;;;17.20;99.90;;;;;;4939689;28;20506;-84
2022/06/26 08:29:58;;;;;;;0.00;0.00;;;18.50;99.90;;;;;;4936549;29;20050;-83
2022/06/26 08:32:24;;;;;;;0.00;0.00;;;22.10;99.90;;;;;;4938962;28;20058;-83
2022/06/26 08:34:50;;;;;;;0.00;0.00;;;21.40;99.90;;;;;;4942725;29;20036;-83
2022/06/26 08:37:16;;;;;;;0.10;0.00;;;21.20;99.90;;;;;;4938945;28;20098;-83
2022/06/26 08:39:43;;;;;;;;;;;20.10;99.90;;;;;;4938258;29;20027;-83
2022/06/26 08:42:09;;;;;;;0.00;0.00;;;19.60;99.90;;;;;;4939861;29;19915;-84
2022/06/26 08:44:43;;;;;;;0.00;0.00;;;19.70;99.90;;;;;;4941225;29;20609;-83
2022/06/26 08:47:10;;;;;;;0.00;0.00;;;19.70;99.90;;;;;;4925889;29;20522;-83
2022/06/26 08:49:36;;;;;;;0.00;0.00;;;19.90;99.90;;;;;;4938641;29;20534;-83
2022/06/26 08:52:03;;;;;;;0.00;0.00;;;19.80;99.90;;;;;;4944146;28;20083;-89
2022/06/26 08:54:30;;;;;;;0.00;0.00;;;19.80;99.90;;;;;;4941704;28;20043;-85
2022/06/26 08:56:56;;;;;;;0.20;0.20;;;19.40;99.90;;;;;;4945931;29;20154;-95
2022/06/26 08:59:22;;;;;;;0.00;0.00;;;19.30;99.90;;;;;;4942343;28;20567;-90
2022/06/26 09:01:48;;;;;;;0.00;0.00;;;20.70;99.90;;;;;;4935813;29;20031;-95
2022/06/26 09:04:14;;;;;;;0.00;0.00;;;21.60;99.90;;;;;;4938445;28;20035;-95
2022/06/26 09:06:42;;;;;;;0.00;0.00;;;20.70;99.90;;;;;;4947743;28;20031;-92
2022/06/26 09:09:17;;;;;;;0.00;0.00;;;19.80;99.90;;;;;;4926142;29;20031;-88
2022/06/26 09:11:44;;;;;;;0.10;0.10;;;19.30;99.90;;;;;;4913549;29;20419;-90
2022/06/26 09:14:11;;;;;;;0.00;0.00;;;19.00;99.90;;;;;;4943546;29;20110;-90
2022/06/26 09:16:39;;;;;;;0.00;0.00;;;19.30;99.90;;;;;;4921832;29;20036;-89
2022/06/26 09:19:14;;;;;;;0.00;0.00;;;18.90;99.90;;;;;;4940790;29;20023;-85
2022/06/26 09:21:40;;;;;;;0.00;0.00;;;19.50;99.90;;;;;;4937272;29;20083;-87
2022/06/26 09:24:13;;;;;;;;;;;20.80;99.90;;;;;;4934971;29;20035;-87
2022/06/26 09:26:40;;;;;;;0.00;0.00;;;20.50;99.90;;;;;;4932981;28;19921;-87
2022/06/26 09:29:18;;;;;;;0.00;0.00;;;22.80;99.90;;;;;;4919630;29;20050;-85
2022/06/26 09:31:44;;;;;;;0.00;0.00;;;26.90;99.90;;;;;;4941192;28;20035;-84
2022/06/26 09:34:21;;;;;;;0.00;0.00;;;25.80;99.90;;;;;;4944155;29;20031;-86
2022/06/26 09:37:01;;;;;;;0.15;0.15;;;25.30;99.90;;;;;;4938204;29;20310;-85
2022/06/26 09:39:28;;;;;;;0.00;0.00;;;24.50;99.90;;;;;;4937945;29;20023;-84
2022/06/26 09:41:54;;;;;;;0.00;0.00;;;26.80;99.90;;;;;;4941128;28;20522;-84
2022/06/26 09:44:21;;;;;;;0.00;0.00;;;27.70;97.90;;;;;;4938024;28;20040;-84
2022/06/26 09:46:47;;;;;;;0.00;0.00;;;26.20;99.90;;;;;;4936889;29;20062;-84
2022/06/26 09:49:14;;;;;;;0.00;0.00;;;25.20;99.90;;;;;;4937039;28;20066;-85
2022/06/26 09:51:40;;;;;;;1.55;1.45;;;24.40;99.90;;;;;;4934325;29;20047;-84
2022/06/26 09:54:06;;;;;;;;;;;25.60;99.90;;;;;;4936155;29;20035;-84
2022/06/26 09:56:33;;;;;;;0.00;0.00;;;25.20;99.90;;;;;;4932269;28;19914;-84
2022/06/26 09:58:59;;;;;;;0.00;0.00;;;24.20;99.90;;;;;;4940981;28;20058;-84
2022/06/26 10:07:06;;;;;;;0.10;0.10;;;23.10;99.90;;;;;;4934824;29;20070;-84
2022/06/26 10:09:34;;;;;;;;;;;23.10;99.90;;;;;;4938479;29;20491;-84
2022/06/26 10:12:02;;;;;;;0.10;0.10;;;24.00;99.90;;;;;;4940108;28;20257;-84
2022/06/26 10:14:36;;;;;;;0.10;0.10;;;24.60;99.90;;;;;;4938816;29;20042;-87
2022/06/26 10:17:11;;;;;;;0.10;0.10;;;26.40;99.90;;;;;;4943602;29;20131;-86
2022/06/26 10:19:56;;;;;;;0.00;0.00;;;24.90;99.90;;;;;;4920089;29;20422;-85
2022/06/26 10:22:23;;;;;;;0.00;0.00;;;28.30;99.90;;;;;;4939027;28;20059;-87
2022/06/26 10:25:00;;;;;;;0.00;0.00;;;26.70;99.90;;;;;;4938818;28;20414;-87
2022/06/26 10:27:32;;;;;;;0.00;0.00;;;24.70;99.90;;;;;;4940146;29;20510;-86
2022/06/26 10:30:11;;;;;;;0.00;0.00;;;23.10;99.90;;;;;;4945422;28;20050;-88
2022/06/26 10:32:37;;;;;;;0.05;0.05;;;21.90;99.90;;;;;;4935881;29;20054;-86
2022/06/26 10:35:04;;;;;;;0.25;0.05;;;22.10;99.90;;;;;;4940313;29;20039;-85
2022/06/26 10:37:47;;;;;;;0.00;0.00;;;22.00;99.90;;;;;;4939499;28;20127;-85
2022/06/26 10:42:52;;;;;;;0.00;0.00;;;21.80;99.90;;;;;;4939387;28;20034;-85
2022/06/26 10:43:06;;;;;;;0.10;0.10;;;21.60;99.90;;;;;;4940817;29;20597;-83
2022/06/26 10:45:36;;;;;;;0.00;0.00;;;21.40;99.90;;;;;;4939512;28;20031;-86
2022/06/26 10:48:26;;;;;;;0.00;0.00;;;21.30;99.90;;;;;;4941014;29;20035;-85
2022/06/26 10:51:03;;;;;;;1.35;0.00;;;21.30;99.90;;;;;;4939672;29;20174;-85
2022/06/26 10:53:31;;;;;;;0.00;0.00;;;21.10;99.90;;;;;;4937768;29;21733;-85
2022/06/26 10:56:06;;;;;;;0.30;0.30;;;21.10;99.90;;;;;;4944223;28;20043;-77
2022/06/26 10:58:35;;;;;;;0.00;0.00;;;21.20;99.90;;;;;;4923009;29;20118;-77
2022/06/26 11:01:04;;;;;;;0.00;0.00;;;21.70;99.90;;;;;;4941233;29;20058;-77
2022/06/26 11:03:30;;;;;;;0.00;0.00;;;22.30;99.90;;;;;;4941686;29;20054;-77
2022/06/26 11:06:05;;;;;;;0.40;0.40;;;22.40;99.90;;;;;;4942617;28;20063;-77
2022/06/26 11:08:38;;;;;;;0.00;0.00;;;22.40;99.90;;;;;;4930143;29;20027;-77
2022/06/26 11:11:09;;;;;;;0.00;0.00;;;21.80;99.90;;;;;;4932866;29;20529;-77
2022/06/26 11:13:47;;;;;;;0.03;0.03;;;21.70;99.90;;;;;;4937620;29;20024;-77
2022/06/26 11:16:13;;;;;;;0.00;0.00;;;21.80;99.90;;;;;;4934641;29;20355;-77
2022/06/26 11:18:39;;;;;;;0.00;0.00;;;22.60;99.90;;;;;;4941751;28;20582;-77
2022/06/26 11:21:05;;;;;;;0.00;0.00;;;22.70;99.90;;;;;;4926759;29;20039;-77
2022/06/26 11:23:36;;;;;;;0.30;0.28;;;22.20;99.90;;;;;;4941178;29;20043;-77
2022/06/26 11:26:11;;;;;;;0.00;0.00;;;21.30;99.90;;;;;;4940336;29;20035;-77
2022/06/26 11:28:41;;;;;;;0.10;0.10;;;21.00;99.90;;;;;;4945716;28;20038;-77
2022/06/26 11:31:22;;;;;;;0.10;0.10;;;21.10;99.90;;;;;;4938284;29;20054;-78
2022/06/26 11:33:48;;;;;;;2.63;0.55;;;21.10;99.90;;;;;;4947485;29;20031;-77
2022/06/26 11:36:15;;;;;;;0.10;0.10;;;20.90;99.90;;;;;;4943969;28;20039;-78
2022/06/26 11:38:52;;;;;;;0.65;0.20;;;20.80;99.90;;;;;;4943033;29;20037;-78
2022/06/26 11:41:18;;;;;;;0.22;0.22;;;20.90;99.90;;;;;;4945075;29;20078;-78
2022/06/26 11:43:52;;;;;;;0.10;0.10;;;20.60;99.90;;;;;;4945673;28;20035;-77
2022/06/26 11:46:18;;;;;;;0.10;0.10;;;20.20;99.90;;;;;;4938785;28;20109;-77
2022/06/26 11:48:44;;;;;;;0.10;0.10;;;19.80;99.90;;;;;;4944874;29;20558;-77
2022/06/26 11:51:16;;;;;;;0.00;0.00;;;19.70;99.90;;;;;;4925962;29;20085;-77
2022/06/26 11:53:47;;;;;;;0.10;0.10;;;19.70;99.90;;;;;;4927938;29;20035;-77
2022/06/26 11:56:22;;;;;;;0.25;0.25;;;19.80;99.90;;;;;;4944586;28;20027;-84
2022/06/26 11:58:51;;;;;;;0.17;0.17;;;19.80;99.90;;;;;;4945598;28;20146;-84
2022/06/26 12:01:18;;;;;;;0.10;0.10;;;20.10;99.90;;;;;;4941508;29;20050;-84
2022/06/26 12:03:46;;;;;;;0.10;0.10;;;20.40;99.90;;;;;;4935374;29;20040;-85
2022/06/26 12:06:13;;;;;;;0.10;0.10;;;20.40;99.90;;;;;;4926098;29;20031;-84
2022/06/26 12:08:39;;;;;;;;;;;20.70;99.90;;;;;;4924508;29;20589;-89
2022/06/26 12:11:04;;;;;;;0.10;0.10;;;21.40;99.90;;;;;;4938979;29;20013;-87
2022/06/26 12:13:32;;;;;;;0.00;0.00;;;21.30;99.90;;;;;;4941868;28;20363;-87
2022/06/26 12:16:06;;;;;;;0.10;0.10;;;21.20;99.90;;;;;;4943442;29;20546;-87
2022/06/26 12:18:35;;;;;;;0.00;0.00;;;21.50;99.90;;;;;;4943546;29;20585;-85
2022/06/26 12:21:01;;;;;;;0.22;0.22;;;21.20;99.90;;;;;;4937516;28;20031;-87
2022/06/26 12:23:39;;;;;;;0.13;0.00;;;20.90;99.90;;;;;;4945168;29;20647;-85
2022/06/26 12:26:09;;;;;;;0.00;0.00;;;20.50;99.90;;;;;;4935628;28;20526;-85
2022/06/26 12:28:47;;;;;;;0.08;0.08;;;20.40;99.90;;;;;;4941793;29;20030;-87
2022/06/26 12:31:14;;;;;;;0.03;0.03;;;20.40;99.90;;;;;;4936649;28;20031;-85
2022/06/26 12:33:39;;;;;;;;;;;20.40;99.90;;;;;;4939379;29;20091;-85
2022/06/26 12:36:06;;;;;;;0.08;0.08;;;19.90;99.90;;;;;;4940179;29;20672;-86
2022/06/26 12:38:34;;;;;;;0.10;0.10;;;19.40;99.90;;;;;;4940451;29;20582;-85
2022/06/26 12:41:01;;;;;;;0.63;0.52;;;19.30;99.90;;;;;;4936881;28;20039;-86
2022/06/26 12:43:26;;;;;;;0.00;0.00;;;19.20;99.90;;;;;;4936972;29;20027;-85
2022/06/26 12:45:52;;;;;;;0.03;0.03;;;19.30;99.90;;;;;;4941943;29;20062;-86
2022/06/26 12:48:18;;;;;;;0.00;0.00;;;19.30;99.90;;;;;;4938369;29;20525;-86
2022/06/26 12:50:43;;;;;;;0.10;0.10;;;19.40;99.90;;;;;;4941829;28;20479;-87
2022/06/26 12:53:09;;;;;;;0.10;0.10;;;19.60;99.90;;;;;;4936805;28;20039;-86
2022/06/26 12:55:35;;;;;;;0.33;0.33;;;19.80;99.90;;;;;;4947141;28;20024;-75
2022/06/26 12:58:01;;;;;;;0.00;0.00;;;19.70;99.90;;;;;;4944058;28;20171;-75
2022/06/26 13:00:27;;;;;;;0.10;0.10;;;19.70;99.90;;;;;;4938654;28;20035;-76
2022/06/26 13:02:53;;;;;;;0.10;0.10;;;20.10;99.90;;;;;;4941872;29;20873;-76
2022/06/26 13:05:19;;;;;;;0.00;0.00;;;20.20;99.90;;;;;;4944138;29;20121;-75
2022/06/26 13:07:45;;;;;;;0.00;0.00;;;20.20;99.90;;;;;;4943401;29;20035;-75
2022/06/26 13:10:11;;;;;;;;;;;19.90;99.90;;;;;;4943459;29;20387;-75
2022/06/26 13:12:37;;;;;;;0.00;0.00;;;19.60;99.90;;;;;;4938475;28;19953;-76
2022/06/26 13:15:03;;;;;;;0.00;0.00;;;19.40;99.90;;;;;;4943501;28;20118;-76
2022/06/26 13:17:29;;;;;;;0.00;0.00;;;19.30;99.90;;;;;;4942487;29;20585;-76
2022/06/26 13:19:55;;;;;;;0.10;0.10;;;19.20;99.90;;;;;;4945759;29;20039;-76